Time;durP1;ratioP1;P1;durP2;ratioP2;P2;SDS_P1;SDS_P2;PMS_P1;PMS_P2;Temp;Humidity;BMP_temperature;BMP_pressure;BME280_temperature;BME280_humidity;BME280_pressure;Samples;Min_cycle;Max_cycle;Signal;HPM_P1;HPM_P2
2024/01/24 00:01:13;;;;;;;;;0.00;0.00;;;;;14.05;100.00;102278.66;5084373;27;45314;-79
2024/01/24 00:03:45;;;;;;;;;0.00;0.00;;;;;13.53;100.00;102168.09;5079948;27;46019;-79
2024/01/24 00:06:11;;;;;;;;;0.00;0.00;;;;;14.18;100.00;102256.91;5060015;28;45362;-79
2024/01/24 00:08:36;;;;;;;;;0.00;0.00;;;;;14.07;100.00;102241.34;5073951;28;45285;-79
2024/01/24 00:11:08;;;;;;;;;0.00;0.00;;;;;14.55;100.00;102351.28;5077013;28;45517;-78
2024/01/24 00:13:34;;;;;;;;;0.00;0.00;;;;;13.72;100.00;102193.97;5075816;28;46702;-79
2024/01/24 00:15:59;;;;;;;;;0.00;0.00;;;;;14.24;100.00;102269.97;5078337;28;45296;-78
2024/01/24 00:18:25;;;;;;;;;0.00;0.00;;;;;14.26;100.00;102265.47;5077099;28;45651;-79
2024/01/24 00:20:51;;;;;;;;;0.00;0.00;;;;;14.07;100.00;102262.63;5056823;28;45587;-79
2024/01/24 00:23:24;;;;;;;;;0.00;0.00;;;;;13.80;100.00;102189.22;5077055;28;45423;-79
2024/01/24 00:25:51;;;;;;;;;0.00;0.00;;;;;14.13;100.00;102275.72;5075810;28;45325;-79
2024/01/24 00:28:16;;;;;;;;;0.00;0.00;;;;;14.43;100.00;102314.47;5067616;28;45206;-79
2024/01/24 00:30:43;;;;;;;;;0.00;0.00;;;;;13.78;100.00;102189.28;5075760;28;45582;-79
2024/01/24 00:33:08;;;;;;;;;0.00;0.00;;;;;14.15;100.00;102268.53;5078488;28;48494;-80
2024/01/24 00:35:34;;;;;;;;;0.00;0.00;;;;;14.18;100.00;102280.84;5079893;28;45338;-78
2024/01/24 00:38:02;;;;;;;;;0.00;0.00;;;;;14.63;100.00;102350.97;5064952;28;45301;-79
2024/01/24 00:40:27;;;;;;;;;0.67;0.00;;;;;14.18;100.00;102267.53;5063588;28;45852;-78
2024/01/24 00:42:53;;;;;;;;;0.00;0.00;;;;;14.42;100.00;102304.78;5062538;28;46155;-79
2024/01/24 00:45:18;;;;;;;;;0.00;0.00;;;;;14.03;100.00;102247.72;5068265;28;45446;-79
2024/01/24 00:47:44;;;;;;;;;0.00;0.00;;;;;14.05;100.00;102260.03;5081171;28;45280;-77
2024/01/24 00:50:10;;;;;;;;;0.00;0.00;;;;;14.18;100.00;102287.03;5062983;28;45324;-78
2024/01/24 00:52:35;;;;;;;;;1.00;0.00;;;;;14.18;100.00;102270.22;5076439;28;45402;-78
2024/01/24 00:55:04;;;;;;;;;0.00;0.00;;;;;14.15;100.00;102292.47;5074914;28;45446;-79
2024/01/24 00:57:29;;;;;;;;;0.00;0.00;;;;;13.91;100.00;102262.34;5064639;28;45378;-78
2024/01/24 00:59:55;;;;;;;;;0.00;0.00;;;;;13.97;100.00;102267.44;5061238;28;45528;-79
2024/01/24 01:02:20;;;;;;;;;0.00;0.00;;;;;14.07;100.00;102262.63;5081240;28;45474;-79
2024/01/24 01:04:45;;;;;;;;;0.00;0.00;;;;;14.02;100.00;102283.25;5080915;27;45281;-79
2024/01/24 01:07:11;;;;;;;;;0.00;0.00;;;;;14.06;100.00;102279.53;5073582;28;45672;-79
2024/01/24 01:09:36;;;;;;;;;0.00;0.00;;;;;14.41;100.00;102340.28;5080641;28;45528;-79
2024/01/24 01:12:02;;;;;;;;;0.33;0.00;;;;;13.67;100.00;102226.06;5062706;28;46835;-78
2024/01/24 01:14:28;;;;;;;;;0.00;0.00;;;;;13.50;100.00;102181.50;5071270;28;45362;-79
2024/01/24 01:16:53;;;;;;;;;0.00;0.00;;;;;13.71;100.00;102225.00;5074340;28;45289;-79
2024/01/24 01:19:19;;;;;;;;;0.00;0.00;;;;;13.73;100.00;102219.63;5062315;28;45932;-79
2024/01/24 01:21:45;;;;;;;;;0.00;0.00;;;;;13.52;100.00;102171.66;5062427;28;46079;-79
2024/01/24 01:24:10;;;;;;;;;0.00;0.00;;;;;13.82;100.00;102246.75;5067426;28;45265;-79
2024/01/24 01:26:36;;;;;;;;;0.00;0.00;;;;;13.69;100.00;102229.50;5075973;28;45352;-79
2024/01/24 01:29:01;;;;;;;;;0.00;0.00;;;;;13.58;100.00;102202.44;5080445;28;45497;-78
2024/01/24 01:31:27;;;;;;;;;0.00;0.00;;;;;13.70;100.00;102235.72;5060836;28;47895;-79
2024/01/24 01:33:53;;;;;;;;;0.00;0.00;;;;;13.70;100.00;102220.63;5080399;28;45447;-79
2024/01/24 01:36:21;;;;;;;;;0.00;0.00;;;;;13.67;100.00;102234.03;5049412;28;45366;-79
2024/01/24 01:38:50;;;;;;;;;0.00;0.00;;;;;13.78;100.00;102231.81;5077205;28;45753;-79
2024/01/24 01:41:15;;;;;;;;;0.00;0.00;;;;;13.63;100.00;102245.69;5082119;28;46170;-79
2024/01/24 01:43:40;;;;;;;;;0.00;0.00;;;;;13.74;100.00;102274.56;5062904;28;45296;-79
2024/01/24 01:46:20;;;;;;;;;0.00;0.00;;;;;13.68;100.00;102256.19;5060537;28;45310;-79
2024/01/24 01:48:45;;;;;;;;;0.00;0.00;;;;;13.71;100.00;102270.19;5076668;28;45470;-79
2024/01/24 01:51:15;;;;;;;;;0.00;0.00;;;;;13.98;100.00;102325.03;5077374;28;45412;-79
2024/01/24 01:53:41;;;;;;;;;0.00;0.00;;;;;14.19;100.00;102365.09;5077779;28;45487;-79
2024/01/24 01:56:09;;;;;;;;;0.00;0.00;;;;;13.18;100.00;102184.47;5075933;28;45285;-79
2024/01/24 01:58:39;;;;;;;;;0.00;0.00;;;;;13.55;100.00;102239.78;5058554;28;45391;-79
2024/01/24 02:01:09;;;;;;;;;0.00;0.00;;;;;14.13;100.00;102360.00;5058361;28;47616;-79
2024/01/24 02:03:34;;;;;;;;;0.00;0.00;;;;;13.11;100.00;102171.44;5080852;27;45578;-79
2024/01/24 02:06:03;;;;;;;;;0.00;0.00;;;;;13.64;100.00;102259.88;5084560;27;45415;-79
2024/01/24 02:08:36;;;;;;;;;1.00;0.00;;;;;13.79;100.00;102301.84;5083285;27;45298;-79
2024/01/24 02:11:05;;;;;;;;;0.00;0.00;;;;;13.27;100.00;102196.53;5086303;27;48134;-78
2024/01/24 02:13:33;;;;;;;;;0.00;0.00;;;;;13.77;100.00;102293.06;5069092;28;45608;-79
2024/01/24 02:15:59;;;;;;;;;0.00;0.00;;;;;13.69;100.00;102265.88;5081113;27;45529;-80
2024/01/24 02:18:25;;;;;;;;;0.00;0.00;;;;;13.46;100.00;102227.72;5056975;28;45551;-80
2024/01/24 02:20:51;;;;;;;;;1.00;0.00;;;;;13.53;100.00;102241.66;5084697;27;46201;-80
2024/01/24 02:23:18;;;;;;;;;0.00;0.00;;;;;13.14;100.00;102160.72;5080297;27;45494;-80
2024/01/24 02:25:52;;;;;;;;;0.00;0.00;;;;;14.02;100.00;102313.38;5083338;27;45363;-80
2024/01/24 02:28:19;;;;;;;;;0.00;0.00;;;;;13.94;100.00;102303.91;5064317;27;45370;-80
2024/01/24 02:30:44;;;;;;;;;0.00;0.00;;;;;13.56;100.00;102233.56;5078206;28;47826;-80
2024/01/24 02:33:16;;;;;;;;;0.00;0.00;;;;;13.64;100.00;102259.88;5081064;27;45293;-80
2024/01/24 02:35:42;;;;;;;;;0.00;0.00;;;;;13.32;100.00;102197.22;5086826;27;45535;-80
2024/01/24 02:38:08;;;;;;;;;0.00;0.00;;;;;13.91;100.00;102298.72;5091929;27;45476;-80
2024/01/24 02:40:33;;;;;;;;;0.00;0.00;;;;;13.76;100.00;102276.22;5087922;27;45506;-80
2024/01/24 02:42:58;;;;;;;;;0.00;0.00;;;;;13.61;100.00;102257.31;5081711;27;45819;-80
2024/01/24 02:45:24;;;;;;;;;0.00;0.00;;;;;14.14;100.00;102327.13;5082997;27;45438;-79
2024/01/24 02:47:49;;;;;;;;;0.00;0.00;;;;;13.98;100.00;102282.47;5082128;27;45510;-80
2024/01/24 02:50:16;;;;;;;;;0.00;0.00;;;;;14.11;100.00;102314.81;5081641;27;46235;-80
2024/01/24 02:52:41;;;;;;;;;0.00;0.00;;;;;13.44;100.00;102200.34;5083739;27;45458;-80
2024/01/24 02:55:10;;;;;;;;;0.00;0.00;;;;;13.71;100.00;102248.09;5082548;27;45443;-80
2024/01/24 02:57:35;;;;;;;;;0.00;0.00;;;;;13.65;100.00;102216.38;5080461;27;45767;-80
2024/01/24 03:00:00;;;;;;;;;0.00;0.00;;;;;13.61;100.00;102220.97;5080418;27;46377;-80
2024/01/24 03:02:29;;;;;;;;;0.00;0.00;;;;;13.71;100.00;102208.22;5083039;27;45344;-80
2024/01/24 03:04:55;;;;;;;;;0.00;0.00;;;;;14.37;100.00;102365.28;5062576;28;45543;-81
2024/01/24 03:07:20;;;;;;;;;0.00;0.00;;;;;14.38;100.00;102331.56;5061682;28;45435;-81
2024/01/24 03:09:46;;;;;;;;;0.00;0.00;;;;;14.38;100.00;102345.75;5068433;28;47117;-81
2024/01/24 03:12:19;;;;;;;;;0.00;0.00;;;;;14.40;100.00;102337.69;5081208;27;45317;-81
2024/01/24 03:14:44;;;;;;;;;0.33;0.00;;;;;13.63;100.00;102229.75;5076361;28;45418;-80
2024/01/24 03:17:10;;;;;;;;;1.00;0.00;;;;;13.68;100.00;102224.28;5078963;28;45288;-80
2024/01/24 03:19:35;;;;;;;;;0.00;0.00;;;;;14.37;100.00;102337.78;5060636;28;45585;-80
2024/01/24 03:22:01;;;;;;;;;0.00;0.00;;;;;14.27;100.00;102341.69;5078209;28;46028;-80
2024/01/24 03:24:27;;;;;;;;;0.00;0.00;;;;;13.38;100.00;102189.06;5064401;28;45420;-79
2024/01/24 03:26:52;;;;;;;;;0.00;0.00;;;;;14.26;100.00;102311.59;5079457;28;45251;-80
2024/01/24 03:29:17;;;;;;;;;0.00;0.00;;;;;14.23;100.00;102325.00;5060305;28;46616;-80
2024/01/24 03:31:43;;;;;;;;;0.00;0.00;;;;;13.92;100.00;102261.44;5080700;27;45460;-79
2024/01/24 03:34:11;;;;;;;;;0.00;0.00;;;;;13.83;100.00;102229.88;5084207;27;45289;-79
2024/01/24 03:36:37;;;;;;;;;0.00;0.00;;;;;13.85;100.00;102241.31;5078489;27;45497;-80
2024/01/24 03:39:03;;;;;;;;;0.00;0.00;;;;;14.14;100.00;102295.19;5078218;27;47962;-80
2024/01/24 03:41:29;;;;;;;;;0.00;0.00;;;;;14.14;100.00;102288.09;5078644;28;45245;-80
2024/01/24 03:43:55;;;;;;;;;0.00;0.00;;;;;14.07;100.00;102263.50;5077205;28;45338;-80
2024/01/24 03:46:20;;;;;;;;;0.00;0.00;;;;;13.98;100.00;102261.19;5082366;27;45502;-80
2024/01/24 03:48:48;;;;;;;;;0.00;0.00;;;;;14.07;100.00;102259.97;5057182;28;45569;-80
2024/01/24 03:51:13;;;;;;;;;0.00;0.00;;;;;14.16;100.00;102283.59;5078605;27;45587;-80
2024/01/24 03:53:39;;;;;;;;;0.00;0.00;;;;;13.95;100.00;102263.97;5078880;28;45908;-80
2024/01/24 03:56:06;;;;;;;;;0.00;0.00;;;;;14.24;100.00;102280.59;5061624;28;45603;-80
2024/01/24 03:58:31;;;;;;;;;1.00;0.00;;;;;13.80;100.00;102211.38;5079467;28;46496;-80
2024/01/24 04:01:00;;;;;;;;;0.00;0.00;;;;;13.93;100.00;102219.75;5065691;28;45513;-80
2024/01/24 04:03:26;;;;;;;;;0.00;0.00;;;;;14.25;100.00;102272.59;5094105;27;45484;-80
2024/01/24 04:05:51;;;;;;;;;0.00;0.00;;;;;14.01;100.00;102254.88;5083384;27;45481;-80
2024/01/24 04:08:17;;;;;;;;;0.00;0.00;;;;;13.70;100.00;102204.69;5095936;27;46256;-80
2024/01/24 04:10:42;;;;;;;;;0.00;0.00;;;;;14.24;100.00;102259.31;5097824;27;45403;-80
2024/01/24 04:13:11;;;;;;;;;0.00;0.00;;;;;13.75;100.00;102183.22;5078341;27;45450;-80
2024/01/24 04:15:38;;;;;;;;;0.00;0.00;;;;;14.13;100.00;102254.44;5093468;27;45462;-80
2024/01/24 04:18:04;;;;;;;;;0.00;0.00;;;;;13.88;100.00;102211.06;5096852;27;45310;-80
2024/01/24 04:20:29;;;;;;;;;1.00;0.00;;;;;14.07;100.00;102239.56;5084780;27;45299;-80
2024/01/24 04:22:58;;;;;;;;;0.00;0.00;;;;;14.18;100.00;102268.41;5079783;27;45398;-81
2024/01/24 04:25:23;;;;;;;;;0.00;0.00;;;;;13.80;100.00;102181.25;5102040;27;45335;-80
2024/01/24 04:27:49;;;;;;;;;0.00;0.00;;;;;14.07;100.00;102278.59;5098078;27;47159;-80
2024/01/24 04:30:16;;;;;;;;;0.00;0.00;;;;;13.59;100.00;102193.56;5078842;27;45461;-80
2024/01/24 04:32:42;;;;;;;;;0.00;0.00;;;;;14.07;100.00;102278.59;5096852;27;45437;-80
2024/01/24 04:35:08;;;;;;;;;0.00;0.00;;;;;13.75;100.00;102226.63;5098431;27;45403;-80
2024/01/24 04:37:34;;;;;;;;;0.00;0.00;;;;;14.25;100.00;102293.88;5096166;27;45880;-80
2024/01/24 04:39:59;;;;;;;;;0.00;0.00;;;;;14.43;100.00;102342.91;5099515;27;45467;-80
2024/01/24 04:42:27;;;;;;;;;0.00;0.00;;;;;14.01;100.00;102287.69;5078179;27;45460;-81
2024/01/24 04:44:55;;;;;;;;;0.00;0.00;;;;;14.67;100.00;102403.19;5095065;27;45521;-81
2024/01/24 04:47:21;;;;;;;;;0.00;0.00;;;;;13.89;100.00;102260.69;5072670;27;47985;-80
2024/01/24 04:49:47;;;;;;;;;0.00;0.00;;;;;13.95;100.00;102266.63;5099260;27;45449;-80
2024/01/24 04:52:17;;;;;;;;;0.00;0.00;;;;;14.26;100.00;102330.22;5075705;27;45450;-81
2024/01/24 04:54:43;;;;;;;;;0.00;0.00;;;;;14.15;100.00;102324.41;5098993;27;45775;-80
2024/01/24 04:57:17;;;;;;;;;0.00;0.00;;;;;14.56;100.00;102392.94;5098432;27;45497;-80
2024/01/24 04:59:43;;;;;;;;;0.00;0.00;;;;;13.84;100.00;102266.16;5111520;27;45643;-80
2024/01/24 05:02:08;;;;;;;;;0.00;0.00;;;;;14.19;100.00;102350.00;5093815;27;45413;-80
2024/01/24 05:04:34;;;;;;;;;0.00;0.00;;;;;14.00;100.00;102320.53;5093208;27;45497;-79
2024/01/24 05:07:00;;;;;;;;;0.00;0.00;;;;;13.72;100.00;102263.09;5077778;27;45464;-80
2024/01/24 05:09:32;;;;;;;;;0.00;0.00;;;;;13.96;100.00;102320.72;5077505;27;45408;-80
2024/01/24 05:11:57;;;;;;;;;0.00;0.00;;;;;13.92;100.00;102295.13;5078749;28;45461;-80
2024/01/24 05:14:22;;;;;;;;;0.67;0.00;;;;;14.41;100.00;102398.84;5076985;27;45442;-80
2024/01/24 05:16:50;;;;;;;;;1.00;0.00;;;;;14.40;100.00;102404.22;5083901;27;46220;-80
2024/01/24 05:19:16;;;;;;;;;0.33;0.00;;;;;14.69;100.00;102451.06;5077808;28;45407;-80
2024/01/24 05:21:42;;;;;;;;;0.00;0.00;;;;;13.96;100.00;102324.25;5077269;28;45490;-80
2024/01/24 05:24:09;;;;;;;;;0.00;0.00;;;;;13.66;100.00;102255.34;5074525;28;45504;-80
2024/01/24 05:26:35;;;;;;;;;0.00;0.00;;;;;14.65;100.00;102431.69;5081212;27;45397;-80
2024/01/24 05:29:02;;;;;;;;;0.00;0.00;;;;;14.17;100.00;102361.63;5075649;28;45600;-80
2024/01/24 05:31:28;;;;;;;;;0.00;0.00;;;;;13.89;100.00;102319.19;5075274;27;45517;-80
2024/01/24 05:33:55;;;;;;;;;1.00;0.00;;;;;14.06;100.00;102373.53;5095927;27;45513;-79
2024/01/24 05:36:21;;;;;;;;;0.00;0.00;;;;;14.17;100.00;102420.16;5079909;27;46007;-79
2024/01/24 05:38:49;;;;;;;;;0.00;0.00;;;;;14.60;100.00;102473.56;5078507;27;45498;-79
2024/01/24 05:41:26;;;;;;;;;0.00;0.00;;;;;14.74;100.00;102535.19;5095365;27;45511;-79
2024/01/24 05:48:14;;;;;;;;;0.00;0.00;;;;;13.64;100.00;102383.03;4998444;28;45532;-87
2024/01/24 05:51:42;;;;;;;;;;;;;;;;;;;;;
2024/01/24 05:54:37;;;;;;;;;0.00;0.00;;;;;14.37;100.00;102537.44;4993276;28;66429;-89
2024/01/24 05:57:02;;;;;;;;;0.00;0.00;;;;;13.38;100.00;102377.75;5020434;27;45298;-84
2024/01/24 05:59:28;;;;;;;;;0.00;0.00;;;;;13.61;100.00;102452.28;5078302;27;47646;-84
2024/01/24 06:01:53;;;;;;;;;0.00;0.00;;;;;13.26;100.00;102410.88;5095984;27;45537;-86
2024/01/24 06:04:19;;;;;;;;;0.00;0.00;;;;;13.49;100.00;102437.56;5084616;27;45837;-87
2024/01/24 06:06:45;;;;;;;;;0.00;0.00;;;;;14.26;100.00;102560.88;5099021;27;45665;-87
2024/01/24 06:09:10;;;;;;;;;0.00;0.00;;;;;13.29;100.00;102418.75;5099146;27;48064;-85
2024/01/24 06:11:37;;;;;;;;;0.00;0.00;;;;;13.63;100.00;102492.94;5100371;27;45415;-86
2024/01/24 06:14:13;;;;;;;;;0.00;0.00;;;;;14.09;100.00;102574.75;5079753;27;45470;-87
2024/01/24 06:16:38;;;;;;;;;0.67;0.00;;;;;13.43;100.00;102460.84;5098065;27;45757;-86
2024/01/24 06:19:04;;;;;;;;;0.00;0.00;;;;;13.57;100.00;102483.41;5099465;27;45398;-86
2024/01/24 06:21:31;;;;;;;;;0.00;0.00;;;;;13.35;100.00;102466.38;5101162;27;45406;-86
2024/01/24 06:23:59;;;;;;;;;0.00;0.00;;;;;13.30;100.00;102467.47;5082122;27;45405;-86
2024/01/24 06:26:28;;;;;;;;;0.00;0.00;;;;;13.47;100.00;102502.34;5082210;27;45494;-87
2024/01/24 06:28:53;;;;;;;;;0.00;0.00;;;;;13.40;100.00;102527.38;5101212;27;46313;-85
2024/01/24 06:31:21;;;;;;;;;0.00;0.00;;;;;13.27;100.00;102497.66;5102399;27;45401;-85
2024/01/24 06:33:50;;;;;;;;;0.00;0.00;;;;;13.66;100.00;102567.31;5097773;27;45379;-86
2024/01/24 06:36:16;;;;;;;;;0.00;0.00;;;;;12.86;100.00;102443.09;5099634;27;45633;-87
2024/01/24 06:38:47;;;;;;;;;0.00;0.00;;;;;12.68;100.00;102411.81;5100754;27;48161;-86
2024/01/24 06:41:13;;;;;;;;;1.00;0.00;;;;;13.79;100.00;102597.91;5099453;27;45332;-84
2024/01/24 06:43:41;;;;;;;;;0.00;0.00;;;;;13.41;100.00;102564.56;5082161;27;44881;-83
2024/01/24 06:46:08;;;;;;;;;0.00;0.00;;;;;13.35;100.00;102542.63;5101012;27;45494;-83
2024/01/24 06:48:34;;;;;;;;;0.00;0.00;;;;;13.83;100.00;102636.78;5100870;27;45286;-83
2024/01/24 06:50:59;;;;;;;;;1.00;0.00;;;;;12.90;100.00;102476.63;5098806;27;45442;-83
2024/01/24 06:53:27;;;;;;;;;0.33;0.00;;;;;13.25;100.00;102549.13;5096736;27;45523;-83
2024/01/24 06:55:53;;;;;;;;;1.00;0.00;;;;;13.45;100.00;102584.78;5089081;27;45499;-84
2024/01/24 06:58:18;;;;;;;;;0.00;0.00;;;;;13.30;100.00;102560.47;5099342;27;45532;-82
2024/01/24 07:00:44;;;;;;;;;0.00;0.00;;;;;13.52;100.00;102602.28;5082097;27;45514;-82
2024/01/24 07:03:09;;;;;;;;;0.00;0.00;;;;;13.77;100.00;102657.38;5078180;27;45434;-87
2024/01/24 07:05:36;;;;;;;;;1.00;0.00;;;;;13.62;100.00;102653.38;5075115;27;45437;-86
2024/01/24 07:08:01;;;;;;;;;1.00;0.00;;;;;13.62;100.00;102625.94;5079314;27;46267;-85
2024/01/24 07:10:27;;;;;;;;;0.00;0.00;;;;;13.19;100.00;102549.28;5068787;28;45479;-85
2024/01/24 07:12:52;;;;;;;;;0.00;0.00;;;;;13.01;100.00;102532.09;5077245;28;45511;-84
2024/01/24 07:15:18;;;;;;;;;0.00;0.00;;;;;13.42;100.00;102618.56;5071239;28;45466;-87
2024/01/24 07:17:44;;;;;;;;;1.33;0.00;;;;;12.85;100.00;102534.34;5062429;28;48091;-87
2024/01/24 07:20:15;;;;;;;;;0.00;0.00;;;;;13.56;100.00;102645.59;5061636;28;45262;-87
2024/01/24 07:22:41;;;;;;;;;2.33;0.00;;;;;13.15;100.00;102609.63;5079323;28;45539;-87
2024/01/24 07:25:07;;;;;;;;;0.00;0.00;;;;;12.60;100.00;102512.03;5062407;28;45503;-87
2024/01/24 07:27:36;;;;;;;;;0.00;0.00;;;;;12.85;100.00;102570.63;5078381;28;47897;-86
2024/01/24 07:30:05;;;;;;;;;0.00;0.00;;;;;12.60;100.00;102522.66;5064986;28;45623;-87
2024/01/24 07:32:31;;;;;;;;;3.00;0.00;;;;;13.40;100.00;102661.16;5074430;28;45465;-87
2024/01/24 07:34:59;;;;;;;;;0.00;0.00;;;;;12.54;100.00;102523.69;5077367;28;45374;-87
2024/01/24 07:37:26;;;;;;;;;1.67;0.00;;;;;12.25;100.00;102462.59;5078960;28;46494;-87
2024/01/24 07:39:53;;;;;;;;;0.00;0.00;;;;;12.75;100.00;102577.09;5061975;28;45311;-88
2024/01/24 07:42:19;;;;;;;;;1.00;0.00;;;;;12.95;100.00;102596.91;5080472;28;45411;-88
2024/01/24 07:44:44;;;;;;;;;0.67;0.33;;;;;12.45;100.00;102536.34;5061934;27;45537;-88
2024/01/24 07:47:10;;;;;;;;;0.00;0.00;;;;;12.76;100.00;102582.34;5078244;27;47171;-86
2024/01/24 07:49:35;;;;;;;;;1.00;0.00;;;;;12.90;100.00;102627.13;5078176;28;46162;-87
2024/01/24 07:52:01;;;;;;;;;2.50;0.00;;;;;12.74;100.00;102594.81;5075263;28;45435;-87
2024/01/24 07:54:26;;;;;;;;;2.00;0.67;;;;;12.31;100.00;102520.81;5057779;28;45613;-86
2024/01/24 07:56:53;;;;;;;;;1.00;0.00;;;;;12.20;100.00;102524.66;5080105;28;46466;-87
2024/01/24 07:59:21;;;;;;;;;2.00;0.00;;;;;13.19;100.00;102720.19;5077201;28;45618;-86
2024/01/24 08:01:47;;;;;;;;;0.33;0.33;;;;;12.75;100.00;102641.72;5070670;28;45456;-86
2024/01/24 08:04:14;;;;;;;;;1.00;0.00;;;;;12.57;100.00;102633.34;5084550;27;45328;-87
2024/01/24 08:06:41;;;;;;;;;1.67;0.00;;;;;12.27;100.00;102560.75;5094777;27;47976;-86
2024/01/24 08:09:07;;;;;;;;;3.00;0.00;;;;;12.74;100.00;102655.00;5077206;28;45449;-86
2024/01/24 08:11:33;;;;;;;;;3.67;1.33;;;;;13.04;100.00;102712.63;5071789;28;45490;-86
2024/01/24 08:13:58;;;;;;;;;2.00;0.67;;;;;12.51;100.00;102619.34;5078282;28;45272;-86
2024/01/24 08:16:24;;;;;;;;;1.00;1.00;;;;;12.41;100.00;102593.06;5079566;27;47525;-86
2024/01/24 08:18:50;;;;;;;;;1.00;1.00;;;;;12.39;100.00;102624.09;5075267;28;45272;-86
2024/01/24 08:21:17;;;;;;;;;4.67;0.00;;;;;12.65;100.00;102655.25;5078557;28;45268;-86
2024/01/24 08:23:42;;;;;;;;;1.00;1.00;;;;;12.93;100.00;102738.59;5090629;27;45479;-86
2024/01/24 08:26:09;;;;;;;;;1.33;0.33;;;;;13.10;100.00;102760.31;5078235;27;45377;-86
2024/01/24 08:28:35;;;;;;;;;2.67;2.00;;;;;13.15;100.00;102754.88;5077522;27;45459;-86
2024/01/24 08:31:03;;;;;;;;;1.33;1.00;;;;;12.26;100.00;102609.38;5078437;28;45466;-86
2024/01/24 08:33:31;;;;;;;;;0.33;0.33;;;;;13.06;100.00;102735.56;5078729;28;45443;-87
2024/01/24 08:35:56;;;;;;;;;2.33;0.00;;;;;12.77;100.00;102705.38;5078648;28;46506;-86
2024/01/24 08:38:22;;;;;;;;;2.33;1.00;;;;;12.48;100.00;102645.94;5073928;27;45281;-86
2024/01/24 08:40:51;;;;;;;;;4.00;1.00;;;;;13.14;100.00;102790.31;5056860;28;45321;-86
2024/01/24 08:43:17;;;;;;;;;2.67;1.67;;;;;11.96;100.00;102571.25;5086823;27;46102;-86
2024/01/24 08:45:42;;;;;;;;;6.00;2.00;;;;;12.81;100.00;102704.38;5082969;27;47078;-85
2024/01/24 08:48:12;;;;;;;;;2.67;1.00;;;;;12.18;100.00;102620.19;5063695;28;45427;-85
2024/01/24 08:50:38;;;;;;;;;1.67;1.33;;;;;12.61;100.00;102696.06;5083024;27;45475;-86
2024/01/24 08:53:03;;;;;;;;;4.67;2.00;;;;;12.41;100.00;102641.72;5068979;28;45454;-86
2024/01/24 08:55:29;;;;;;;;;1.00;1.00;;;;;12.78;100.00;102681.44;5075396;28;47518;-86
2024/01/24 08:57:54;;;;;;;;;4.00;2.33;;;;;13.16;100.00;102757.47;5079927;27;45563;-86
2024/01/24 09:00:20;;;;;;;;;2.67;1.00;;;;;12.53;100.00;102659.97;5082073;27;45504;-86
2024/01/24 09:02:46;;;;;;;;;5.00;1.67;;;;;12.86;100.00;102737.03;5077483;27;45493;-86
2024/01/24 09:05:12;;;;;;;;;3.00;1.00;;;;;12.61;100.00;102675.69;5081943;27;47327;-86
2024/01/24 09:07:37;;;;;;;;;4.00;1.00;;;;;12.68;100.00;102703.84;5099419;27;45376;-85
2024/01/24 09:10:04;;;;;;;;;4.67;2.00;;;;;13.22;100.00;102801.63;5101683;27;45355;-85
2024/01/24 09:12:30;;;;;;;;;4.67;2.00;;;;;12.86;100.00;102742.34;5102314;27;45540;-85
2024/01/24 09:14:56;;;;;;;;;4.33;1.00;;;;;12.99;100.00;102771.16;5100094;27;48180;-85
2024/01/24 09:17:21;;;;;;;;;3.00;1.00;;;;;12.89;100.00;102732.47;5100446;27;45460;-85
2024/01/24 09:19:47;;;;;;;;;3.00;1.00;;;;;13.28;100.00;102818.28;5095929;27;45494;-85
2024/01/24 09:22:12;;;;;;;;;5.67;2.00;;;;;12.49;100.00;102700.78;5096627;27;45439;-84
2024/01/24 09:24:38;;;;;;;;;3.00;1.00;;;;;12.65;100.00;102733.13;5095576;27;46364;-85
2024/01/24 09:27:03;;;;;;;;;3.00;1.67;;;;;13.11;100.00;102814.31;5100444;27;45413;-85
2024/01/24 09:29:39;;;;;;;;;9.67;2.00;;;;;12.45;100.00;102727.44;5101394;27;45511;-84
2024/01/24 09:32:05;;;;;;;;;2.33;2.00;;;;;12.72;100.00;102731.19;5099377;27;45406;-84
2024/01/24 09:34:34;;;;;;;;;5.67;2.00;;;;;12.26;100.00;102660.69;5078805;28;45586;-83
2024/01/24 09:37:18;;;;;;;;;3.00;1.00;;;;;12.32;100.00;102670.25;5099226;27;45340;-83
2024/01/24 09:39:57;;;;;;;;;5.00;2.00;;;;;13.05;100.00;102770.16;5101437;27;45387;-83
2024/01/24 09:42:26;;;;;;;;;4.33;3.00;;;;;12.77;100.00;102716.88;5080411;27;45351;-83
2024/01/24 09:44:56;;;;;;;;;5.67;3.00;;;;;12.60;100.00;102689.03;5081520;27;45882;-84
2024/01/24 09:47:47;;;;;;;;;3.67;2.00;;;;;12.54;100.00;102701.53;5082516;27;45522;-83
2024/01/24 09:50:17;;;;;;;;;2.00;2.00;;;;;13.38;100.00;102827.75;5083166;27;45382;-83
2024/01/24 09:52:43;;;;;;;;;10.00;2.67;;;;;13.18;100.00;102789.34;5097997;27;45295;-84
2024/01/24 09:55:13;;;;;;;;;2.00;2.00;;;;;13.31;100.00;102814.69;5101684;27;45529;-83
2024/01/24 09:57:41;;;;;;;;;3.33;1.67;;;;;12.99;100.00;102751.69;5094936;27;45454;-84
2024/01/24 10:00:09;;;;;;;;;5.00;3.00;;;;;12.52;100.00;102657.38;5098853;27;45536;-84
2024/01/24 10:02:34;;;;;;;;;3.67;3.00;;;;;13.49;100.00;102857.59;5083668;27;45662;-83
2024/01/24 10:05:09;;;;;;;;;9.00;3.00;;;;;12.77;100.00;102718.66;5087302;27;46413;-83
2024/01/24 10:07:38;;;;;;;;;3.67;3.33;;;;;12.54;100.00;102677.63;5075418;27;45532;-84
2024/01/24 10:10:25;;;;;;;;;4.00;2.67;;;;;12.71;100.00;102709.06;5076423;27;45487;-84
2024/01/24 10:12:51;;;;;;;;;5.00;2.00;;;;;12.79;100.00;102715.06;5089009;27;45760;-83
2024/01/24 10:15:18;;;;;;;;;4.00;3.33;;;;;13.28;100.00;102790.84;5091332;27;46712;-84
2024/01/24 10:17:46;;;;;;;;;6.33;4.00;;;;;12.93;100.00;102755.41;5063978;27;45423;-84
2024/01/24 10:20:12;;;;;;;;;7.00;3.00;;;;;13.34;100.00;102817.25;5092726;27;45396;-84
2024/01/24 10:22:43;;;;;;;;;8.67;3.00;;;;;12.86;100.00;102729.91;5089943;27;45523;-82
2024/01/24 10:25:10;;;;;;;;;7.00;4.00;;;;;13.11;100.00;102761.19;5074573;27;48021;-83
2024/01/24 10:27:38;;;;;;;;;2.00;2.00;;;;;13.94;100.00;102895.34;5074524;27;45450;-83
2024/01/24 10:30:10;;;;;;;;;5.67;3.33;;;;;13.98;100.00;102906.78;5082782;27;45696;-83
2024/01/24 10:32:45;;;;;;;;;8.67;3.00;;;;;13.76;100.00;102871.03;5092095;27;45442;-85
2024/01/24 10:35:28;;;;;;;;;4.33;4.00;;;;;13.18;100.00;102776.06;5082175;27;46252;-84
2024/01/24 10:38:10;;;;;;;;;4.00;2.67;;;;;13.96;100.00;102906.84;5076240;27;45448;-83
2024/01/24 10:40:44;;;;;;;;;8.67;4.33;;;;;13.80;100.00;102892.22;5067752;28;45610;-83
2024/01/24 10:43:31;;;;;;;;;3.33;3.33;;;;;13.28;100.00;102790.84;5079393;27;45401;-84
2024/01/24 10:45:57;;;;;;;;;4.33;3.00;;;;;13.87;100.00;102875.13;5061317;28;45688;-84
2024/01/24 10:48:37;;;;;;;;;7.33;2.00;;;;;14.15;100.00;102938.25;5088250;27;45402;-84
2024/01/24 10:51:04;;;;;;;;;4.00;3.00;;;;;13.66;100.00;102858.91;5067315;27;45309;-84
2024/01/24 10:53:31;;;;;;;;;2.67;1.33;;;;;13.55;100.00;102836.16;5069130;28;45638;-84
2024/01/24 10:55:57;;;;;;;;;4.33;2.67;;;;;13.47;100.00;102824.84;5075137;28;47362;-84
2024/01/24 10:58:25;;;;;;;;;8.00;3.00;;;;;13.48;100.00;102833.72;5079314;28;45576;-85
2024/01/24 11:00:52;;;;;;;;;5.67;2.33;;;;;13.97;100.00;102908.56;5080783;27;45399;-84
2024/01/24 11:03:21;;;;;;;;;3.33;2.67;;;;;13.45;100.00;102789.44;5081345;27;45599;-84
2024/01/24 11:05:58;;;;;;;;;5.33;2.33;;;;;13.61;100.00;102783.72;5052221;27;45533;-84
2024/01/24 11:08:39;;;;;;;;;5.33;2.67;;;;;14.09;100.00;102867.44;5069281;28;45412;-84
2024/01/24 11:14:37;;;;;;;;;6.00;2.67;;;;;13.35;100.00;102696.75;5079864;27;45372;-84
2024/01/24 11:17:15;;;;;;;;;3.67;3.00;;;;;13.44;100.00;102733.69;5073537;27;45687;-83
2024/01/24 11:20:17;;;;;;;;;6.67;3.00;;;;;13.44;100.00;102717.75;5073544;27;45302;-84
2024/01/24 11:22:42;;;;;;;;;6.67;4.00;;;;;14.03;96.36;102787.81;5057493;27;45708;-84
2024/01/24 11:25:11;;;;;;;;;3.33;2.67;;;;;13.79;97.39;102740.63;5084570;27;45532;-81
2024/01/24 11:27:42;;;;;;;;;10.00;3.67;;;;;13.51;96.80;102690.91;5080428;27;46490;-84
2024/01/24 11:30:18;;;;;;;;;4.67;2.67;;;;;14.31;96.58;102833.06;5083551;27;45502;-83